CPY9 weather

Fergus (Holyoake Airfield)
Ontario, Canada

Public forecast

Using degrees Celsius for public forecast. Weather courtesy of forecast.io.

METAR (pilot weather report)

Closest report is Waterloo Airport, 16.6 nm (30.8 km) SSW. Retrieved 2019/05/25 22:00 UTC (50 minutes ago):

CYKF 252200Z AUTO 28007KT 9SM VCTS BKN130 OVC150 19/18 A2983 RMK LTNG DIST ALQDS SLP103 DENSITY ALT 1800FT

TAF (pilot weather forecast)

Closest forecast is Waterloo Airport, 16.6 nm (30.8 km) SSW. Retrieved 2019/05/25 20:42 UTC (2 hours ago):

TAF CYKF 251939Z 2520/2608 27012G22KT P6SM -SHRA OVC030 TEMPO 2520/2523 5SM SHRA BR BKN007 PROB30 2520/2523 VRB15G35KT 1SM TSRA BR BKN007 OVC030CB FM252300 26012G22KT P6SM SCT010 BKN240 TEMPO 2523/2608 BKN010 PROB30 2606/2608 1SM BR BKN006 RMK FCST BASED ON AUTO OBS. NXT FCST BY 260200Z